sensor_id;sensor_type;location;lat;lon;timestamp;P1;durP1;ratioP1;P2;durP2;ratioP2
70532;SDS011;58088;51.186;17.130;2022-09-16T00:00:41;1.90;;;0.60;;
70532;SDS011;58088;51.186;17.130;2022-09-16T00:03:09;1.90;;;0.60;;
70532;SDS011;58088;51.186;17.130;2022-09-16T00:05:43;2.60;;;0.70;;
70532;SDS011;58088;51.186;17.130;2022-09-16T00:08:12;1.80;;;0.80;;
70532;SDS011;58088;51.186;17.130;2022-09-16T00:10:39;3.10;;;0.80;;
70532;SDS011;58088;51.186;17.130;2022-09-16T00:13:05;2.40;;;0.70;;
70532;SDS011;58088;51.186;17.130;2022-09-16T00:15:32;2.60;;;0.70;;
70532;SDS011;58088;51.186;17.130;2022-09-16T00:17:58;3.30;;;1.40;;
70532;SDS011;58088;51.186;17.130;2022-09-16T00:20:25;2.40;;;0.70;;
70532;SDS011;58088;51.186;17.130;2022-09-16T00:22:52;2.80;;;0.80;;
70532;SDS011;58088;51.186;17.130;2022-09-16T00:25:18;3.60;;;0.80;;
70532;SDS011;58088;51.186;17.130;2022-09-16T00:27:47;3.00;;;0.80;;
70532;SDS011;58088;51.186;17.130;2022-09-16T00:30:14;2.40;;;0.60;;
70532;SDS011;58088;51.186;17.130;2022-09-16T00:32:40;2.00;;;0.80;;
70532;SDS011;58088;51.186;17.130;2022-09-16T00:35:06;3.00;;;0.70;;
70532;SDS011;58088;51.186;17.130;2022-09-16T00:37:32;2.80;;;0.80;;
70532;SDS011;58088;51.186;17.130;2022-09-16T00:39:59;1.80;;;0.80;;
70532;SDS011;58088;51.186;17.130;2022-09-16T00:42:25;2.20;;;0.70;;
70532;SDS011;58088;51.186;17.130;2022-09-16T00:47:55;2.10;;;0.70;;
70532;SDS011;58088;51.186;17.130;2022-09-16T00:50:27;2.90;;;0.80;;
70532;SDS011;58088;51.186;17.130;2022-09-16T00:53:09;1.70;;;0.80;;
70532;SDS011;58088;51.186;17.130;2022-09-16T00:55:39;4.50;;;0.90;;
70532;SDS011;58088;51.186;17.130;2022-09-16T00:58:19;3.10;;;0.80;;
70532;SDS011;58088;51.186;17.130;2022-09-16T01:00:50;2.40;;;0.90;;
70532;SDS011;58088;51.186;17.130;2022-09-16T01:03:41;2.50;;;0.80;;
70532;SDS011;58088;51.186;17.130;2022-09-16T01:06:12;1.80;;;0.70;;
70532;SDS011;58088;51.186;17.130;2022-09-16T01:08:41;1.40;;;0.50;;
70532;SDS011;58088;51.186;17.130;2022-09-16T01:11:08;3.30;;;0.80;;
70532;SDS011;58088;51.186;17.130;2022-09-16T01:13:35;2.00;;;0.80;;
70532;SDS011;58088;51.186;17.130;2022-09-16T01:16:11;2.80;;;0.60;;
70532;SDS011;58088;51.186;17.130;2022-09-16T01:19:14;4.00;;;0.80;;
70532;SDS011;58088;51.186;17.130;2022-09-16T01:25:52;2.00;;;0.70;;
70532;SDS011;58088;51.186;17.130;2022-09-16T01:34:26;1.50;;;0.70;;
70532;SDS011;58088;51.186;17.130;2022-09-16T01:37:08;2.10;;;0.70;;
70532;SDS011;58088;51.186;17.130;2022-09-16T01:42:56;2.50;;;0.60;;
70532;SDS011;58088;51.186;17.130;2022-09-16T01:48:23;2.80;;;0.60;;
70532;SDS011;58088;51.186;17.130;2022-09-16T01:51:20;3.10;;;0.70;;
70532;SDS011;58088;51.186;17.130;2022-09-16T01:54:12;3.30;;;0.80;;
70532;SDS011;58088;51.186;17.130;2022-09-16T01:56:55;3.00;;;0.60;;
70532;SDS011;58088;51.186;17.130;2022-09-16T01:59:53;1.60;;;0.60;;
70532;SDS011;58088;51.186;17.130;2022-09-16T02:02:34;1.40;;;0.50;;
70532;SDS011;58088;51.186;17.130;2022-09-16T02:05:07;2.80;;;0.80;;
70532;SDS011;58088;51.186;17.130;2022-09-16T02:07:43;2.90;;;0.60;;
70532;SDS011;58088;51.186;17.130;2022-09-16T02:10:29;2.90;;;0.50;;
70532;SDS011;58088;51.186;17.130;2022-09-16T02:13:10;2.10;;;0.50;;
70532;SDS011;58088;51.186;17.130;2022-09-16T02:15:47;0.90;;;0.50;;
70532;SDS011;58088;51.186;17.130;2022-09-16T02:18:20;2.50;;;0.50;;
70532;SDS011;58088;51.186;17.130;2022-09-16T02:20:52;1.90;;;0.50;;
70532;SDS011;58088;51.186;17.130;2022-09-16T02:23:34;3.40;;;0.70;;
70532;SDS011;58088;51.186;17.130;2022-09-16T02:26:05;2.80;;;0.50;;
70532;SDS011;58088;51.186;17.130;2022-09-16T02:28:38;2.90;;;0.60;;
70532;SDS011;58088;51.186;17.130;2022-09-16T02:31:09;2.50;;;0.60;;
70532;SDS011;58088;51.186;17.130;2022-09-16T02:33:44;2.00;;;0.60;;
70532;SDS011;58088;51.186;17.130;2022-09-16T02:36:20;3.20;;;0.50;;
70532;SDS011;58088;51.186;17.130;2022-09-16T02:39:05;1.90;;;0.50;;
70532;SDS011;58088;51.186;17.130;2022-09-16T02:41:36;2.70;;;0.50;;
70532;SDS011;58088;51.186;17.130;2022-09-16T02:44:04;2.60;;;0.60;;
70532;SDS011;58088;51.186;17.130;2022-09-16T02:46:39;1.60;;;0.60;;
70532;SDS011;58088;51.186;17.130;2022-09-16T02:49:50;2.20;;;0.50;;
70532;SDS011;58088;51.186;17.130;2022-09-16T02:52:37;2.70;;;0.60;;
70532;SDS011;58088;51.186;17.130;2022-09-16T02:55:34;4.10;;;0.80;;
70532;SDS011;58088;51.186;17.130;2022-09-16T02:58:06;2.70;;;0.70;;
70532;SDS011;58088;51.186;17.130;2022-09-16T03:00:36;3.80;;;0.60;;
70532;SDS011;58088;51.186;17.130;2022-09-16T03:03:08;3.30;;;0.50;;
70532;SDS011;58088;51.186;17.130;2022-09-16T03:05:34;2.90;;;0.50;;
70532;SDS011;58088;51.186;17.130;2022-09-16T03:08:20;1.40;;;0.40;;
70532;SDS011;58088;51.186;17.130;2022-09-16T03:10:46;2.40;;;0.40;;
70532;SDS011;58088;51.186;17.130;2022-09-16T03:13:38;2.10;;;0.60;;
70532;SDS011;58088;51.186;17.130;2022-09-16T03:16:41;3.20;;;0.50;;
70532;SDS011;58088;51.186;17.130;2022-09-16T03:26:42;1.30;;;0.30;;
70532;SDS011;58088;51.186;17.130;2022-09-16T03:29:24;1.40;;;0.40;;
70532;SDS011;58088;51.186;17.130;2022-09-16T03:32:04;2.20;;;0.40;;
70532;SDS011;58088;51.186;17.130;2022-09-16T03:34:42;2.60;;;0.50;;
70532;SDS011;58088;51.186;17.130;2022-09-16T03:37:14;1.10;;;0.40;;
70532;SDS011;58088;51.186;17.130;2022-09-16T03:39:51;1.20;;;0.30;;
70532;SDS011;58088;51.186;17.130;2022-09-16T03:42:20;2.30;;;0.50;;
70532;SDS011;58088;51.186;17.130;2022-09-16T03:44:47;1.90;;;0.40;;
70532;SDS011;58088;51.186;17.130;2022-09-16T03:47:14;1.10;;;0.30;;
70532;SDS011;58088;51.186;17.130;2022-09-16T03:49:41;1.20;;;0.40;;
70532;SDS011;58088;51.186;17.130;2022-09-16T03:52:08;2.20;;;0.40;;
70532;SDS011;58088;51.186;17.130;2022-09-16T03:54:35;3.80;;;0.50;;
70532;SDS011;58088;51.186;17.130;2022-09-16T03:57:03;3.60;;;0.40;;
70532;SDS011;58088;51.186;17.130;2022-09-16T03:59:30;1.00;;;0.30;;
70532;SDS011;58088;51.186;17.130;2022-09-16T04:01:57;0.70;;;0.20;;
70532;SDS011;58088;51.186;17.130;2022-09-16T04:04:23;0.80;;;0.30;;
70532;SDS011;58088;51.186;17.130;2022-09-16T04:06:49;1.00;;;0.30;;
70532;SDS011;58088;51.186;17.130;2022-09-16T04:09:16;2.50;;;0.40;;
70532;SDS011;58088;51.186;17.130;2022-09-16T04:11:42;1.10;;;0.40;;
70532;SDS011;58088;51.186;17.130;2022-09-16T04:14:09;2.10;;;0.50;;
70532;SDS011;58088;51.186;17.130;2022-09-16T04:16:36;2.80;;;0.40;;
70532;SDS011;58088;51.186;17.130;2022-09-16T04:19:03;1.10;;;0.40;;
70532;SDS011;58088;51.186;17.130;2022-09-16T04:21:29;1.90;;;0.40;;
70532;SDS011;58088;51.186;17.130;2022-09-16T04:23:55;1.10;;;0.40;;
70532;SDS011;58088;51.186;17.130;2022-09-16T04:26:22;2.40;;;0.40;;
70532;SDS011;58088;51.186;17.130;2022-09-16T04:28:51;2.20;;;0.60;;
70532;SDS011;58088;51.186;17.130;2022-09-16T04:31:19;1.30;;;0.30;;
70532;SDS011;58088;51.186;17.130;2022-09-16T04:33:45;3.00;;;0.60;;
70532;SDS011;58088;51.186;17.130;2022-09-16T04:36:14;1.90;;;0.40;;
70532;SDS011;58088;51.186;17.130;2022-09-16T04:38:44;2.40;;;0.40;;
70532;SDS011;58088;51.186;17.130;2022-09-16T04:41:15;0.80;;;0.30;;
70532;SDS011;58088;51.186;17.130;2022-09-16T04:43:43;0.70;;;0.30;;
70532;SDS011;58088;51.186;17.130;2022-09-16T04:46:10;0.80;;;0.30;;
70532;SDS011;58088;51.186;17.130;2022-09-16T04:48:37;1.70;;;0.60;;
70532;SDS011;58088;51.186;17.130;2022-09-16T04:51:09;4.80;;;0.60;;
70532;SDS011;58088;51.186;17.130;2022-09-16T04:53:40;1.10;;;0.40;;
70532;SDS011;58088;51.186;17.130;2022-09-16T04:56:11;1.40;;;0.60;;
70532;SDS011;58088;51.186;17.130;2022-09-16T04:58:47;1.90;;;0.50;;
70532;SDS011;58088;51.186;17.130;2022-09-16T05:01:18;1.60;;;0.60;;
70532;SDS011;58088;51.186;17.130;2022-09-16T05:03:48;2.90;;;0.50;;
70532;SDS011;58088;51.186;17.130;2022-09-16T05:06:27;1.10;;;0.40;;
70532;SDS011;58088;51.186;17.130;2022-09-16T05:08:56;1.30;;;0.40;;
70532;SDS011;58088;51.186;17.130;2022-09-16T05:11:24;0.80;;;0.30;;
70532;SDS011;58088;51.186;17.130;2022-09-16T05:13:53;1.30;;;0.40;;
70532;SDS011;58088;51.186;17.130;2022-09-16T05:16:21;1.90;;;0.30;;
70532;SDS011;58088;51.186;17.130;2022-09-16T05:18:50;3.20;;;0.50;;
70532;SDS011;58088;51.186;17.130;2022-09-16T05:21:22;1.50;;;0.60;;
70532;SDS011;58088;51.186;17.130;2022-09-16T05:23:50;1.70;;;0.30;;
70532;SDS011;58088;51.186;17.130;2022-09-16T05:26:23;2.90;;;0.50;;
70532;SDS011;58088;51.186;17.130;2022-09-16T05:28:52;2.20;;;0.50;;
70532;SDS011;58088;51.186;17.130;2022-09-16T05:31:24;2.00;;;0.50;;
70532;SDS011;58088;51.186;17.130;2022-09-16T05:33:54;2.80;;;0.50;;
70532;SDS011;58088;51.186;17.130;2022-09-16T05:36:21;1.80;;;0.50;;
70532;SDS011;58088;51.186;17.130;2022-09-16T05:38:48;1.10;;;0.50;;
70532;SDS011;58088;51.186;17.130;2022-09-16T05:41:15;2.20;;;0.70;;
70532;SDS011;58088;51.186;17.130;2022-09-16T05:43:41;2.00;;;0.60;;
70532;SDS011;58088;51.186;17.130;2022-09-16T05:46:15;2.10;;;0.60;;
70532;SDS011;58088;51.186;17.130;2022-09-16T05:48:47;1.80;;;0.60;;
70532;SDS011;58088;51.186;17.130;2022-09-16T05:51:19;1.60;;;0.60;;
70532;SDS011;58088;51.186;17.130;2022-09-16T05:53:49;1.60;;;0.60;;
70532;SDS011;58088;51.186;17.130;2022-09-16T05:56:18;2.30;;;0.70;;
70532;SDS011;58088;51.186;17.130;2022-09-16T05:58:51;1.50;;;0.70;;
70532;SDS011;58088;51.186;17.130;2022-09-16T06:01:24;1.50;;;0.70;;
70532;SDS011;58088;51.186;17.130;2022-09-16T06:03:53;3.30;;;0.70;;
70532;SDS011;58088;51.186;17.130;2022-09-16T06:06:36;1.60;;;0.50;;
70532;SDS011;58088;51.186;17.130;2022-09-16T06:09:09;2.00;;;0.60;;
70532;SDS011;58088;51.186;17.130;2022-09-16T06:11:44;1.40;;;0.60;;
70532;SDS011;58088;51.186;17.130;2022-09-16T06:14:12;2.20;;;0.70;;
70532;SDS011;58088;51.186;17.130;2022-09-16T06:16:40;1.90;;;0.50;;
70532;SDS011;58088;51.186;17.130;2022-09-16T06:19:10;1.90;;;0.70;;
70532;SDS011;58088;51.186;17.130;2022-09-16T06:21:38;3.10;;;0.60;;
70532;SDS011;58088;51.186;17.130;2022-09-16T06:24:07;1.70;;;0.60;;
70532;SDS011;58088;51.186;17.130;2022-09-16T06:26:36;2.70;;;0.80;;
70532;SDS011;58088;51.186;17.130;2022-09-16T06:29:04;2.40;;;0.70;;
70532;SDS011;58088;51.186;17.130;2022-09-16T06:31:34;2.10;;;0.70;;
70532;SDS011;58088;51.186;17.130;2022-09-16T06:34:06;1.30;;;0.60;;
70532;SDS011;58088;51.186;17.130;2022-09-16T06:36:39;3.20;;;1.00;;
70532;SDS011;58088;51.186;17.130;2022-09-16T06:39:11;1.00;;;0.70;;
70532;SDS011;58088;51.186;17.130;2022-09-16T06:41:42;2.10;;;0.90;;
70532;SDS011;58088;51.186;17.130;2022-09-16T06:44:12;1.40;;;0.70;;
70532;SDS011;58088;51.186;17.130;2022-09-16T06:46:41;3.40;;;1.10;;
70532;SDS011;58088;51.186;17.130;2022-09-16T06:49:10;1.90;;;0.80;;
70532;SDS011;58088;51.186;17.130;2022-09-16T06:51:38;2.50;;;1.10;;
70532;SDS011;58088;51.186;17.130;2022-09-16T06:54:06;3.10;;;1.00;;
70532;SDS011;58088;51.186;17.130;2022-09-16T06:56:34;2.10;;;1.00;;
70532;SDS011;58088;51.186;17.130;2022-09-16T06:59:04;2.30;;;1.00;;
70532;SDS011;58088;51.186;17.130;2022-09-16T07:01:32;2.40;;;1.10;;
70532;SDS011;58088;51.186;17.130;2022-09-16T07:04:02;2.20;;;0.80;;
70532;SDS011;58088;51.186;17.130;2022-09-16T07:06:30;2.40;;;0.90;;
70532;SDS011;58088;51.186;17.130;2022-09-16T07:08:57;3.80;;;0.80;;
70532;SDS011;58088;51.186;17.130;2022-09-16T07:11:24;1.70;;;0.70;;
70532;SDS011;58088;51.186;17.130;2022-09-16T07:13:51;2.10;;;0.60;;
70532;SDS011;58088;51.186;17.130;2022-09-16T07:16:22;3.30;;;0.70;;
70532;SDS011;58088;51.186;17.130;2022-09-16T07:18:57;1.20;;;0.60;;
70532;SDS011;58088;51.186;17.130;2022-09-16T07:21:26;1.40;;;0.60;;
70532;SDS011;58088;51.186;17.130;2022-09-16T07:24:01;1.30;;;0.60;;
70532;SDS011;58088;51.186;17.130;2022-09-16T07:26:30;1.60;;;0.80;;
70532;SDS011;58088;51.186;17.130;2022-09-16T07:29:00;2.80;;;0.70;;
70532;SDS011;58088;51.186;17.130;2022-09-16T07:31:33;1.70;;;0.60;;
70532;SDS011;58088;51.186;17.130;2022-09-16T07:34:03;1.70;;;0.70;;
70532;SDS011;58088;51.186;17.130;2022-09-16T07:36:39;1.60;;;0.70;;
70532;SDS011;58088;51.186;17.130;2022-09-16T07:39:08;1.90;;;0.70;;
70532;SDS011;58088;51.186;17.130;2022-09-16T07:41:43;1.20;;;0.60;;
70532;SDS011;58088;51.186;17.130;2022-09-16T07:44:13;4.30;;;0.90;;
70532;SDS011;58088;51.186;17.130;2022-09-16T07:46:40;2.20;;;0.90;;
70532;SDS011;58088;51.186;17.130;2022-09-16T07:49:09;1.50;;;0.60;;
70532;SDS011;58088;51.186;17.130;2022-09-16T07:51:37;2.40;;;1.00;;
70532;SDS011;58088;51.186;17.130;2022-09-16T07:54:06;1.80;;;0.80;;
70532;SDS011;58088;51.186;17.130;2022-09-16T07:56:36;2.30;;;0.80;;
70532;SDS011;58088;51.186;17.130;2022-09-16T07:59:05;2.70;;;0.80;;
70532;SDS011;58088;51.186;17.130;2022-09-16T08:01:33;2.20;;;0.90;;
70532;SDS011;58088;51.186;17.130;2022-09-16T08:04:00;1.60;;;0.70;;
70532;SDS011;58088;51.186;17.130;2022-09-16T08:06:29;3.00;;;0.90;;
70532;SDS011;58088;51.186;17.130;2022-09-16T08:08:58;2.00;;;0.80;;
70532;SDS011;58088;51.186;17.130;2022-09-16T08:11:26;2.20;;;0.60;;
70532;SDS011;58088;51.186;17.130;2022-09-16T08:13:57;2.20;;;0.80;;
70532;SDS011;58088;51.186;17.130;2022-09-16T08:16:24;2.10;;;0.90;;
70532;SDS011;58088;51.186;17.130;2022-09-16T08:18:53;2.10;;;0.80;;
70532;SDS011;58088;51.186;17.130;2022-09-16T08:21:25;1.40;;;0.70;;
70532;SDS011;58088;51.186;17.130;2022-09-16T08:23:53;1.70;;;0.90;;
70532;SDS011;58088;51.186;17.130;2022-09-16T08:26:21;2.30;;;0.90;;
70532;SDS011;58088;51.186;17.130;2022-09-16T08:28:48;1.50;;;0.80;;
70532;SDS011;58088;51.186;17.130;2022-09-16T08:31:17;2.20;;;0.70;;
70532;SDS011;58088;51.186;17.130;2022-09-16T08:33:44;2.40;;;0.60;;
70532;SDS011;58088;51.186;17.130;2022-09-16T08:36:12;1.30;;;0.50;;
70532;SDS011;58088;51.186;17.130;2022-09-16T08:38:45;1.60;;;0.60;;
70532;SDS011;58088;51.186;17.130;2022-09-16T08:43:46;3.00;;;0.70;;
70532;SDS011;58088;51.186;17.130;2022-09-16T08:49:16;1.30;;;0.50;;
70532;SDS011;58088;51.186;17.130;2022-09-16T08:51:47;1.30;;;0.50;;
70532;SDS011;58088;51.186;17.130;2022-09-16T08:54:25;1.80;;;0.60;;
70532;SDS011;58088;51.186;17.130;2022-09-16T08:57:00;1.90;;;0.70;;
70532;SDS011;58088;51.186;17.130;2022-09-16T08:59:40;2.10;;;0.60;;
70532;SDS011;58088;51.186;17.130;2022-09-16T09:05:12;1.40;;;0.60;;
70532;SDS011;58088;51.186;17.130;2022-09-16T09:07:51;1.70;;;0.50;;
70532;SDS011;58088;51.186;17.130;2022-09-16T09:22:44;1.80;;;0.60;;
70532;SDS011;58088;51.186;17.130;2022-09-16T09:25:34;1.30;;;0.40;;
70532;SDS011;58088;51.186;17.130;2022-09-16T09:31:35;1.00;;;0.40;;
70532;SDS011;58088;51.186;17.130;2022-09-16T09:34:27;1.60;;;0.40;;
70532;SDS011;58088;51.186;17.130;2022-09-16T09:40:50;1.10;;;0.30;;
70532;SDS011;58088;51.186;17.130;2022-09-16T09:43:35;1.00;;;0.40;;
70532;SDS011;58088;51.186;17.130;2022-09-16T09:46:27;1.20;;;0.30;;
70532;SDS011;58088;51.186;17.130;2022-09-16T09:49:07;1.20;;;0.50;;
70532;SDS011;58088;51.186;17.130;2022-09-16T09:52:04;2.80;;;0.40;;
70532;SDS011;58088;51.186;17.130;2022-09-16T09:54:37;1.30;;;0.40;;
70532;SDS011;58088;51.186;17.130;2022-09-16T09:59:57;1.20;;;0.40;;
70532;SDS011;58088;51.186;17.130;2022-09-16T10:02:43;2.80;;;0.50;;
70532;SDS011;58088;51.186;17.130;2022-09-16T10:05:29;1.80;;;0.40;;
70532;SDS011;58088;51.186;17.130;2022-09-16T10:07:58;1.60;;;0.40;;
70532;SDS011;58088;51.186;17.130;2022-09-16T10:10:32;1.50;;;0.40;;
70532;SDS011;58088;51.186;17.130;2022-09-16T10:13:11;2.50;;;0.40;;
70532;SDS011;58088;51.186;17.130;2022-09-16T10:15:38;1.10;;;0.30;;
70532;SDS011;58088;51.186;17.130;2022-09-16T10:18:23;1.70;;;0.30;;
70532;SDS011;58088;51.186;17.130;2022-09-16T10:23:30;2.10;;;0.40;;
70532;SDS011;58088;51.186;17.130;2022-09-16T10:26:18;2.00;;;0.60;;
70532;SDS011;58088;51.186;17.130;2022-09-16T10:29:12;2.50;;;0.30;;
70532;SDS011;58088;51.186;17.130;2022-09-16T10:31:42;1.00;;;0.40;;
70532;SDS011;58088;51.186;17.130;2022-09-16T10:34:35;1.30;;;0.50;;
70532;SDS011;58088;51.186;17.130;2022-09-16T10:39:44;0.90;;;0.40;;
70532;SDS011;58088;51.186;17.130;2022-09-16T10:42:21;2.10;;;0.30;;
70532;SDS011;58088;51.186;17.130;2022-09-16T10:44:52;2.30;;;0.60;;
70532;SDS011;58088;51.186;17.130;2022-09-16T10:47:24;2.10;;;0.40;;
70532;SDS011;58088;51.186;17.130;2022-09-16T10:49:59;1.10;;;0.30;;
70532;SDS011;58088;51.186;17.130;2022-09-16T10:52:30;0.70;;;0.40;;
70532;SDS011;58088;51.186;17.130;2022-09-16T10:55:11;0.70;;;0.40;;
70532;SDS011;58088;51.186;17.130;2022-09-16T10:57:50;1.50;;;0.50;;
70532;SDS011;58088;51.186;17.130;2022-09-16T11:00:23;1.90;;;0.50;;
70532;SDS011;58088;51.186;17.130;2022-09-16T11:03:44;1.80;;;0.50;;
70532;SDS011;58088;51.186;17.130;2022-09-16T11:09:27;1.40;;;0.50;;
70532;SDS011;58088;51.186;17.130;2022-09-16T11:12:28;1.30;;;0.50;;
70532;SDS011;58088;51.186;17.130;2022-09-16T11:15:16;1.50;;;0.40;;
70532;SDS011;58088;51.186;17.130;2022-09-16T11:29:59;3.40;;;0.30;;
70532;SDS011;58088;51.186;17.130;2022-09-16T11:39:00;1.40;;;0.20;;
70532;SDS011;58088;51.186;17.130;2022-09-16T11:42:00;1.30;;;0.30;;
70532;SDS011;58088;51.186;17.130;2022-09-16T11:44:43;1.00;;;0.30;;
70532;SDS011;58088;51.186;17.130;2022-09-16T11:47:24;0.60;;;0.20;;
70532;SDS011;58088;51.186;17.130;2022-09-16T11:58:46;0.80;;;0.30;;
70532;SDS011;58088;51.186;17.130;2022-09-16T12:01:34;1.40;;;0.30;;
70532;SDS011;58088;51.186;17.130;2022-09-16T12:04:41;1.30;;;0.40;;
70532;SDS011;58088;51.186;17.130;2022-09-16T12:07:59;1.70;;;0.40;;
70532;SDS011;58088;51.186;17.130;2022-09-16T12:13:57;1.00;;;0.30;;
70532;SDS011;58088;51.186;17.130;2022-09-16T12:19:28;1.50;;;0.30;;
70532;SDS011;58088;51.186;17.130;2022-09-16T12:22:05;0.80;;;0.40;;
70532;SDS011;58088;51.186;17.130;2022-09-16T12:30:18;0.70;;;0.40;;
70532;SDS011;58088;51.186;17.130;2022-09-16T12:35:25;1.60;;;0.30;;
70532;SDS011;58088;51.186;17.130;2022-09-16T12:37:55;1.30;;;0.20;;
70532;SDS011;58088;51.186;17.130;2022-09-16T12:50:44;1.60;;;0.30;;
70532;SDS011;58088;51.186;17.130;2022-09-16T12:56:37;0.90;;;0.20;;
70532;SDS011;58088;51.186;17.130;2022-09-16T13:02:36;0.90;;;0.20;;
70532;SDS011;58088;51.186;17.130;2022-09-16T13:05:25;1.00;;;0.20;;
70532;SDS011;58088;51.186;17.130;2022-09-16T13:07:56;0.90;;;0.20;;
70532;SDS011;58088;51.186;17.130;2022-09-16T13:10:39;0.40;;;0.20;;
70532;SDS011;58088;51.186;17.130;2022-09-16T13:13:17;1.00;;;0.30;;
70532;SDS011;58088;51.186;17.130;2022-09-16T13:15:54;0.80;;;0.20;;
70532;SDS011;58088;51.186;17.130;2022-09-16T13:18:38;0.40;;;0.20;;
70532;SDS011;58088;51.186;17.130;2022-09-16T13:21:24;0.40;;;0.20;;
70532;SDS011;58088;51.186;17.130;2022-09-16T13:24:13;1.20;;;0.20;;
70532;SDS011;58088;51.186;17.130;2022-09-16T13:27:23;1.00;;;0.20;;
70532;SDS011;58088;51.186;17.130;2022-09-16T13:30:14;0.50;;;0.30;;
70532;SDS011;58088;51.186;17.130;2022-09-16T13:37:44;2.00;;;0.40;;
70532;SDS011;58088;51.186;17.130;2022-09-16T13:43:11;1.10;;;0.30;;
70532;SDS011;58088;51.186;17.130;2022-09-16T13:45:41;1.20;;;0.30;;
70532;SDS011;58088;51.186;17.130;2022-09-16T13:48:15;0.40;;;0.20;;
70532;SDS011;58088;51.186;17.130;2022-09-16T13:50:53;1.40;;;0.40;;
70532;SDS011;58088;51.186;17.130;2022-09-16T13:53:30;0.90;;;0.20;;
70532;SDS011;58088;51.186;17.130;2022-09-16T14:02:06;1.20;;;0.30;;
70532;SDS011;58088;51.186;17.130;2022-09-16T14:09:22;0.30;;;0.20;;
70532;SDS011;58088;51.186;17.130;2022-09-16T14:14:32;0.40;;;0.20;;
70532;SDS011;58088;51.186;17.130;2022-09-16T14:17:11;0.50;;;0.20;;
70532;SDS011;58088;51.186;17.130;2022-09-16T14:19:43;0.20;;;0.20;;
70532;SDS011;58088;51.186;17.130;2022-09-16T14:22:16;1.00;;;0.30;;
70532;SDS011;58088;51.186;17.130;2022-09-16T14:24:46;0.40;;;0.10;;
70532;SDS011;58088;51.186;17.130;2022-09-16T14:27:31;1.30;;;0.10;;
70532;SDS011;58088;51.186;17.130;2022-09-16T14:30:06;0.50;;;0.20;;
70532;SDS011;58088;51.186;17.130;2022-09-16T14:32:39;0.20;;;0.20;;
70532;SDS011;58088;51.186;17.130;2022-09-16T14:37:44;0.90;;;0.20;;
70532;SDS011;58088;51.186;17.130;2022-09-16T14:40:15;0.60;;;0.20;;
70532;SDS011;58088;51.186;17.130;2022-09-16T14:43:03;0.60;;;0.30;;
70532;SDS011;58088;51.186;17.130;2022-09-16T14:45:32;0.40;;;0.20;;
70532;SDS011;58088;51.186;17.130;2022-09-16T14:48:05;0.90;;;0.20;;
70532;SDS011;58088;51.186;17.130;2022-09-16T14:50:40;0.50;;;0.10;;
70532;SDS011;58088;51.186;17.130;2022-09-16T14:53:31;0.80;;;0.20;;
70532;SDS011;58088;51.186;17.130;2022-09-16T14:56:01;0.60;;;0.20;;
70532;SDS011;58088;51.186;17.130;2022-09-16T14:58:30;0.40;;;0.20;;
70532;SDS011;58088;51.186;17.130;2022-09-16T15:01:07;0.30;;;0.20;;
70532;SDS011;58088;51.186;17.130;2022-09-16T15:03:52;0.20;;;0.10;;
70532;SDS011;58088;51.186;17.130;2022-09-16T15:06:28;1.10;;;0.20;;
70532;SDS011;58088;51.186;17.130;2022-09-16T15:09:02;0.50;;;0.20;;
70532;SDS011;58088;51.186;17.130;2022-09-16T15:11:45;0.70;;;0.30;;
70532;SDS011;58088;51.186;17.130;2022-09-16T15:14:16;1.00;;;0.20;;
70532;SDS011;58088;51.186;17.130;2022-09-16T15:16:49;0.70;;;0.20;;
70532;SDS011;58088;51.186;17.130;2022-09-16T15:19:22;0.80;;;0.20;;
70532;SDS011;58088;51.186;17.130;2022-09-16T15:21:58;1.00;;;0.30;;
70532;SDS011;58088;51.186;17.130;2022-09-16T15:24:28;0.80;;;0.30;;
70532;SDS011;58088;51.186;17.130;2022-09-16T15:26:57;0.50;;;0.20;;
70532;SDS011;58088;51.186;17.130;2022-09-16T15:31:50;0.30;;;0.20;;
70532;SDS011;58088;51.186;17.130;2022-09-16T15:36:52;1.10;;;0.30;;
70532;SDS011;58088;51.186;17.130;2022-09-16T15:42:12;1.10;;;0.20;;
70532;SDS011;58088;51.186;17.130;2022-09-16T15:44:51;0.80;;;0.20;;
70532;SDS011;58088;51.186;17.130;2022-09-16T15:47:30;0.60;;;0.20;;
70532;SDS011;58088;51.186;17.130;2022-09-16T15:50:06;0.90;;;0.20;;
70532;SDS011;58088;51.186;17.130;2022-09-16T15:58:24;0.20;;;0.20;;
70532;SDS011;58088;51.186;17.130;2022-09-16T16:01:15;1.10;;;0.30;;
70532;SDS011;58088;51.186;17.130;2022-09-16T16:03:56;0.40;;;0.20;;
70532;SDS011;58088;51.186;17.130;2022-09-16T16:11:54;0.90;;;0.20;;
70532;SDS011;58088;51.186;17.130;2022-09-16T16:14:30;0.30;;;0.10;;
70532;SDS011;58088;51.186;17.130;2022-09-16T16:19:30;1.00;;;0.50;;
70532;SDS011;58088;51.186;17.130;2022-09-16T16:21:57;0.60;;;0.20;;
70532;SDS011;58088;51.186;17.130;2022-09-16T16:24:26;0.50;;;0.30;;
70532;SDS011;58088;51.186;17.130;2022-09-16T16:26:54;0.80;;;0.20;;
70532;SDS011;58088;51.186;17.130;2022-09-16T16:29:20;0.50;;;0.30;;
70532;SDS011;58088;51.186;17.130;2022-09-16T16:32:00;0.60;;;0.30;;
70532;SDS011;58088;51.186;17.130;2022-09-16T16:34:35;1.10;;;0.30;;
70532;SDS011;58088;51.186;17.130;2022-09-16T16:37:04;1.00;;;0.30;;
70532;SDS011;58088;51.186;17.130;2022-09-16T16:39:32;1.80;;;0.30;;
70532;SDS011;58088;51.186;17.130;2022-09-16T16:42:00;1.00;;;0.20;;
70532;SDS011;58088;51.186;17.130;2022-09-16T16:44:26;0.40;;;0.30;;
70532;SDS011;58088;51.186;17.130;2022-09-16T16:46:54;1.20;;;0.30;;
70532;SDS011;58088;51.186;17.130;2022-09-16T16:49:21;0.80;;;0.30;;
70532;SDS011;58088;51.186;17.130;2022-09-16T16:51:52;0.60;;;0.30;;
70532;SDS011;58088;51.186;17.130;2022-09-16T16:54:23;1.00;;;0.30;;
70532;SDS011;58088;51.186;17.130;2022-09-16T16:56:49;1.00;;;0.40;;
70532;SDS011;58088;51.186;17.130;2022-09-16T16:59:16;1.90;;;0.50;;
70532;SDS011;58088;51.186;17.130;2022-09-16T17:01:44;1.50;;;0.30;;
70532;SDS011;58088;51.186;17.130;2022-09-16T17:04:12;1.90;;;0.40;;
70532;SDS011;58088;51.186;17.130;2022-09-16T17:06:39;0.90;;;0.30;;
70532;SDS011;58088;51.186;17.130;2022-09-16T17:09:06;0.90;;;0.30;;
70532;SDS011;58088;51.186;17.130;2022-09-16T17:11:35;0.80;;;0.20;;
70532;SDS011;58088;51.186;17.130;2022-09-16T17:14:04;1.00;;;0.30;;
70532;SDS011;58088;51.186;17.130;2022-09-16T17:16:32;0.80;;;0.30;;
70532;SDS011;58088;51.186;17.130;2022-09-16T17:19:00;1.50;;;0.30;;
70532;SDS011;58088;51.186;17.130;2022-09-16T17:21:33;3.00;;;0.40;;
70532;SDS011;58088;51.186;17.130;2022-09-16T17:24:01;3.10;;;0.40;;
70532;SDS011;58088;51.186;17.130;2022-09-16T17:26:27;1.00;;;0.30;;
70532;SDS011;58088;51.186;17.130;2022-09-16T17:28:54;1.30;;;0.30;;
70532;SDS011;58088;51.186;17.130;2022-09-16T17:31:29;2.70;;;0.30;;
70532;SDS011;58088;51.186;17.130;2022-09-16T17:34:03;1.60;;;0.30;;
70532;SDS011;58088;51.186;17.130;2022-09-16T17:36:32;0.80;;;0.30;;
70532;SDS011;58088;51.186;17.130;2022-09-16T17:39:05;2.30;;;0.30;;
70532;SDS011;58088;51.186;17.130;2022-09-16T17:41:36;1.70;;;0.40;;
70532;SDS011;58088;51.186;17.130;2022-09-16T17:44:04;3.40;;;0.40;;
70532;SDS011;58088;51.186;17.130;2022-09-16T17:46:33;1.80;;;0.50;;
70532;SDS011;58088;51.186;17.130;2022-09-16T17:49:02;1.90;;;0.50;;
70532;SDS011;58088;51.186;17.130;2022-09-16T17:51:32;1.50;;;0.60;;
70532;SDS011;58088;51.186;17.130;2022-09-16T17:54:00;1.30;;;0.50;;
70532;SDS011;58088;51.186;17.130;2022-09-16T17:56:28;1.30;;;0.50;;
70532;SDS011;58088;51.186;17.130;2022-09-16T17:58:55;3.00;;;0.70;;
70532;SDS011;58088;51.186;17.130;2022-09-16T18:01:23;2.10;;;0.70;;